Assinippi, Massachusetts
Current Conditions -  °F | °C
As of 8:52 AM on Tuesday 21 Oct 2014 (Local Time) from KPYM Reporting Station
Broken Clouds Broken Clouds  
Wind Chill: 55°   Ceiling: 5500
Heat Index: 55°   Visibility: 10mi
Dew Point: 53°   Wind: 3mph
Humidity: 93%   Direction: 100°E
Pressure: 29.98"   Gusts: NA
Location:  42.1315°N, 70.8467°W
Report Text: KPYM 211252Z AUTO 10003KT 10SM BKN055 13/12 A2998 RMK AO2 SLP152 T01280117
Loading
Personal Weather Stations






























Interactive Weather Map
Tropical Storm Tracking
New forecast layout! Learn more

10-Day Weather Forecast

Advertisements
Track Severe Weather on mobile